sensor_id;sensor_type;location;lat;lon;timestamp;P1;durP1;ratioP1;P2;durP2;ratioP2
23115;SDS011;11727;52.134;5.052;2023-05-10T00:01:58;29.80;;;12.77;;
23115;SDS011;11727;52.134;5.052;2023-05-10T00:04:23;31.77;;;12.43;;
23115;SDS011;11727;52.134;5.052;2023-05-10T00:06:52;26.13;;;11.30;;
23115;SDS011;11727;52.134;5.052;2023-05-10T00:09:18;36.38;;;13.98;;
23115;SDS011;11727;52.134;5.052;2023-05-10T00:11:44;33.97;;;14.02;;
23115;SDS011;11727;52.134;5.052;2023-05-10T00:14:09;30.15;;;13.30;;
23115;SDS011;11727;52.134;5.052;2023-05-10T00:16:35;34.30;;;13.15;;
23115;SDS011;11727;52.134;5.052;2023-05-10T00:19:00;34.05;;;14.05;;
23115;SDS011;11727;52.134;5.052;2023-05-10T00:21:26;31.25;;;12.80;;
23115;SDS011;11727;52.134;5.052;2023-05-10T00:23:53;37.40;;;16.70;;
23115;SDS011;11727;52.134;5.052;2023-05-10T00:26:19;37.70;;;15.80;;
23115;SDS011;11727;52.134;5.052;2023-05-10T00:28:45;43.00;;;17.52;;
23115;SDS011;11727;52.134;5.052;2023-05-10T00:31:10;38.20;;;16.15;;
23115;SDS011;11727;52.134;5.052;2023-05-10T00:33:39;35.50;;;15.75;;
23115;SDS011;11727;52.134;5.052;2023-05-10T00:36:05;39.13;;;17.00;;
23115;SDS011;11727;52.134;5.052;2023-05-10T00:38:32;39.58;;;15.80;;
23115;SDS011;11727;52.134;5.052;2023-05-10T00:40:58;34.22;;;15.00;;
23115;SDS011;11727;52.134;5.052;2023-05-10T00:43:24;34.40;;;14.25;;
23115;SDS011;11727;52.134;5.052;2023-05-10T00:45:49;32.03;;;13.82;;
23115;SDS011;11727;52.134;5.052;2023-05-10T00:48:15;32.60;;;15.07;;
23115;SDS011;11727;52.134;5.052;2023-05-10T00:50:41;33.78;;;15.73;;
23115;SDS011;11727;52.134;5.052;2023-05-10T00:53:07;40.85;;;16.98;;
23115;SDS011;11727;52.134;5.052;2023-05-10T00:55:33;34.75;;;15.90;;
23115;SDS011;11727;52.134;5.052;2023-05-10T00:57:58;40.55;;;17.77;;
23115;SDS011;11727;52.134;5.052;2023-05-10T01:00:24;41.72;;;16.52;;
23115;SDS011;11727;52.134;5.052;2023-05-10T01:02:50;42.75;;;16.35;;
23115;SDS011;11727;52.134;5.052;2023-05-10T01:05:17;44.47;;;17.20;;
23115;SDS011;11727;52.134;5.052;2023-05-10T01:07:43;52.17;;;17.40;;
23115;SDS011;11727;52.134;5.052;2023-05-10T01:10:09;42.00;;;16.10;;
23115;SDS011;11727;52.134;5.052;2023-05-10T01:12:37;44.78;;;15.73;;
23115;SDS011;11727;52.134;5.052;2023-05-10T01:15:06;58.03;;;18.15;;
23115;SDS011;11727;52.134;5.052;2023-05-10T01:17:37;47.35;;;15.85;;
23115;SDS011;11727;52.134;5.052;2023-05-10T01:20:06;47.92;;;16.65;;
23115;SDS011;11727;52.134;5.052;2023-05-10T01:31:18;46.55;;;16.95;;
23115;SDS011;11727;52.134;5.052;2023-05-10T01:34:21;52.92;;;17.92;;
23115;SDS011;11727;52.134;5.052;2023-05-10T01:36:56;46.88;;;17.85;;
23115;SDS011;11727;52.134;5.052;2023-05-10T01:39:44;53.05;;;19.05;;
23115;SDS011;11727;52.134;5.052;2023-05-10T01:42:16;45.33;;;17.50;;
23115;SDS011;11727;52.134;5.052;2023-05-10T01:44:49;56.55;;;18.48;;
23115;SDS011;11727;52.134;5.052;2023-05-10T01:47:20;50.95;;;17.10;;
23115;SDS011;11727;52.134;5.052;2023-05-10T01:50:06;47.65;;;17.63;;
23115;SDS011;11727;52.134;5.052;2023-05-10T01:52:41;51.78;;;17.63;;
23115;SDS011;11727;52.134;5.052;2023-05-10T01:55:11;58.22;;;17.58;;
23115;SDS011;11727;52.134;5.052;2023-05-10T01:57:42;48.53;;;15.48;;
23115;SDS011;11727;52.134;5.052;2023-05-10T02:00:10;47.42;;;16.60;;
23115;SDS011;11727;52.134;5.052;2023-05-10T02:02:40;57.35;;;18.48;;
23115;SDS011;11727;52.134;5.052;2023-05-10T02:05:09;53.42;;;17.08;;
23115;SDS011;11727;52.134;5.052;2023-05-10T02:07:37;55.45;;;17.58;;
23115;SDS011;11727;52.134;5.052;2023-05-10T02:10:04;49.85;;;17.13;;
23115;SDS011;11727;52.134;5.052;2023-05-10T02:12:32;48.72;;;15.75;;
23115;SDS011;11727;52.134;5.052;2023-05-10T02:15:01;47.28;;;18.05;;
23115;SDS011;11727;52.134;5.052;2023-05-10T02:17:30;50.75;;;17.02;;
23115;SDS011;11727;52.134;5.052;2023-05-10T02:19:57;58.67;;;18.27;;
23115;SDS011;11727;52.134;5.052;2023-05-10T02:22:25;48.35;;;17.65;;
23115;SDS011;11727;52.134;5.052;2023-05-10T02:24:52;49.17;;;16.33;;
23115;SDS011;11727;52.134;5.052;2023-05-10T02:27:20;47.00;;;16.88;;
23115;SDS011;11727;52.134;5.052;2023-05-10T02:29:48;55.63;;;20.55;;
23115;SDS011;11727;52.134;5.052;2023-05-10T02:32:15;53.90;;;18.35;;
23115;SDS011;11727;52.134;5.052;2023-05-10T02:34:42;50.13;;;18.83;;
23115;SDS011;11727;52.134;5.052;2023-05-10T02:37:10;61.47;;;18.05;;
23115;SDS011;11727;52.134;5.052;2023-05-10T02:39:39;63.10;;;20.02;;
23115;SDS011;11727;52.134;5.052;2023-05-10T02:42:09;60.25;;;20.13;;
23115;SDS011;11727;52.134;5.052;2023-05-10T02:44:41;58.60;;;19.80;;
23115;SDS011;11727;52.134;5.052;2023-05-10T02:47:08;53.40;;;20.25;;
23115;SDS011;11727;52.134;5.052;2023-05-10T02:49:33;62.08;;;20.73;;
23115;SDS011;11727;52.134;5.052;2023-05-10T02:52:00;60.00;;;21.17;;
23115;SDS011;11727;52.134;5.052;2023-05-10T02:54:30;65.85;;;20.65;;
23115;SDS011;11727;52.134;5.052;2023-05-10T02:57:00;61.00;;;19.63;;
23115;SDS011;11727;52.134;5.052;2023-05-10T02:59:29;72.18;;;20.27;;
23115;SDS011;11727;52.134;5.052;2023-05-10T03:01:55;60.90;;;20.35;;
23115;SDS011;11727;52.134;5.052;2023-05-10T03:04:21;53.88;;;17.83;;
23115;SDS011;11727;52.134;5.052;2023-05-10T03:06:47;71.20;;;19.02;;
23115;SDS011;11727;52.134;5.052;2023-05-10T03:09:12;53.50;;;17.70;;
23115;SDS011;11727;52.134;5.052;2023-05-10T03:14:49;62.90;;;19.02;;
23115;SDS011;11727;52.134;5.052;2023-05-10T03:17:23;62.45;;;19.33;;
23115;SDS011;11727;52.134;5.052;2023-05-10T03:19:56;61.28;;;19.27;;
23115;SDS011;11727;52.134;5.052;2023-05-10T03:22:37;61.08;;;20.30;;
23115;SDS011;11727;52.134;5.052;2023-05-10T03:25:11;61.10;;;18.08;;
23115;SDS011;11727;52.134;5.052;2023-05-10T03:27:41;53.30;;;18.90;;
23115;SDS011;11727;52.134;5.052;2023-05-10T03:30:10;54.45;;;18.30;;
23115;SDS011;11727;52.134;5.052;2023-05-10T03:32:37;76.85;;;20.75;;
23115;SDS011;11727;52.134;5.052;2023-05-10T03:35:09;55.00;;;18.42;;
23115;SDS011;11727;52.134;5.052;2023-05-10T03:37:37;54.13;;;18.92;;
23115;SDS011;11727;52.134;5.052;2023-05-10T03:40:02;57.33;;;18.73;;
23115;SDS011;11727;52.134;5.052;2023-05-10T03:42:29;55.83;;;20.58;;
23115;SDS011;11727;52.134;5.052;2023-05-10T03:44:54;55.70;;;18.42;;
23115;SDS011;11727;52.134;5.052;2023-05-10T03:47:20;58.70;;;20.58;;
23115;SDS011;11727;52.134;5.052;2023-05-10T03:49:46;63.80;;;19.45;;
23115;SDS011;11727;52.134;5.052;2023-05-10T03:52:11;53.97;;;18.90;;
23115;SDS011;11727;52.134;5.052;2023-05-10T03:54:37;55.83;;;19.15;;
23115;SDS011;11727;52.134;5.052;2023-05-10T03:57:03;58.50;;;20.35;;
23115;SDS011;11727;52.134;5.052;2023-05-10T03:59:29;72.05;;;22.02;;
23115;SDS011;11727;52.134;5.052;2023-05-10T04:01:55;59.72;;;20.00;;
23115;SDS011;11727;52.134;5.052;2023-05-10T04:04:21;56.17;;;20.17;;
23115;SDS011;11727;52.134;5.052;2023-05-10T04:06:48;61.70;;;20.53;;
23115;SDS011;11727;52.134;5.052;2023-05-10T04:09:13;58.25;;;18.67;;
23115;SDS011;11727;52.134;5.052;2023-05-10T04:11:39;59.55;;;18.02;;
23115;SDS011;11727;52.134;5.052;2023-05-10T04:14:04;52.70;;;18.98;;
23115;SDS011;11727;52.134;5.052;2023-05-10T04:16:30;64.72;;;19.85;;
23115;SDS011;11727;52.134;5.052;2023-05-10T04:18:56;53.47;;;20.20;;
23115;SDS011;11727;52.134;5.052;2023-05-10T04:21:22;52.53;;;20.33;;
23115;SDS011;11727;52.134;5.052;2023-05-10T04:23:48;62.55;;;22.17;;
23115;SDS011;11727;52.134;5.052;2023-05-10T04:26:13;63.45;;;18.88;;
23115;SDS011;11727;52.134;5.052;2023-05-10T04:28:39;64.43;;;20.02;;
23115;SDS011;11727;52.134;5.052;2023-05-10T04:31:05;67.03;;;20.25;;
23115;SDS011;11727;52.134;5.052;2023-05-10T04:33:32;70.10;;;21.67;;
23115;SDS011;11727;52.134;5.052;2023-05-10T04:35:58;62.55;;;21.20;;
23115;SDS011;11727;52.134;5.052;2023-05-10T04:38:24;56.10;;;17.10;;
23115;SDS011;11727;52.134;5.052;2023-05-10T04:40:50;69.50;;;21.30;;
23115;SDS011;11727;52.134;5.052;2023-05-10T04:43:15;63.17;;;19.73;;
23115;SDS011;11727;52.134;5.052;2023-05-10T04:45:41;57.63;;;19.65;;
23115;SDS011;11727;52.134;5.052;2023-05-10T04:48:06;51.92;;;19.95;;
23115;SDS011;11727;52.134;5.052;2023-05-10T04:50:32;61.42;;;19.02;;
23115;SDS011;11727;52.134;5.052;2023-05-10T04:52:58;45.40;;;18.17;;
23115;SDS011;11727;52.134;5.052;2023-05-10T04:55:24;53.67;;;18.60;;
23115;SDS011;11727;52.134;5.052;2023-05-10T04:57:50;50.90;;;19.63;;
23115;SDS011;11727;52.134;5.052;2023-05-10T05:00:15;52.85;;;19.10;;
23115;SDS011;11727;52.134;5.052;2023-05-10T05:02:44;46.65;;;18.17;;
23115;SDS011;11727;52.134;5.052;2023-05-10T05:05:10;51.05;;;20.10;;
23115;SDS011;11727;52.134;5.052;2023-05-10T05:07:36;49.70;;;20.67;;
23115;SDS011;11727;52.134;5.052;2023-05-10T05:10:03;64.15;;;19.40;;
23115;SDS011;11727;52.134;5.052;2023-05-10T05:12:33;54.25;;;20.70;;
23115;SDS011;11727;52.134;5.052;2023-05-10T05:14:59;55.20;;;18.95;;
23115;SDS011;11727;52.134;5.052;2023-05-10T05:17:25;42.20;;;17.17;;
23115;SDS011;11727;52.134;5.052;2023-05-10T05:19:50;42.25;;;17.40;;
23115;SDS011;11727;52.134;5.052;2023-05-10T05:22:16;44.80;;;17.30;;
23115;SDS011;11727;52.134;5.052;2023-05-10T05:24:42;41.13;;;14.82;;
23115;SDS011;11727;52.134;5.052;2023-05-10T05:27:07;43.58;;;16.23;;
23115;SDS011;11727;52.134;5.052;2023-05-10T05:29:33;35.97;;;14.55;;
23115;SDS011;11727;52.134;5.052;2023-05-10T05:31:59;39.85;;;14.98;;
23115;SDS011;11727;52.134;5.052;2023-05-10T05:34:24;30.45;;;13.45;;
23115;SDS011;11727;52.134;5.052;2023-05-10T05:36:50;32.58;;;11.82;;
23115;SDS011;11727;52.134;5.052;2023-05-10T05:39:18;22.55;;;9.77;;
23115;SDS011;11727;52.134;5.052;2023-05-10T05:41:49;27.88;;;10.40;;
23115;SDS011;11727;52.134;5.052;2023-05-10T05:44:14;23.52;;;9.52;;
23115;SDS011;11727;52.134;5.052;2023-05-10T05:46:41;27.80;;;9.77;;
23115;SDS011;11727;52.134;5.052;2023-05-10T05:49:07;18.17;;;8.07;;
23115;SDS011;11727;52.134;5.052;2023-05-10T05:51:32;19.63;;;7.85;;
23115;SDS011;11727;52.134;5.052;2023-05-10T05:53:59;17.80;;;8.10;;
23115;SDS011;11727;52.134;5.052;2023-05-10T05:56:25;19.33;;;7.85;;
23115;SDS011;11727;52.134;5.052;2023-05-10T05:58:51;18.73;;;8.70;;
23115;SDS011;11727;52.134;5.052;2023-05-10T06:01:16;27.27;;;9.63;;
23115;SDS011;11727;52.134;5.052;2023-05-10T06:03:42;18.65;;;8.85;;
23115;SDS011;11727;52.134;5.052;2023-05-10T06:06:08;19.27;;;7.57;;
23115;SDS011;11727;52.134;5.052;2023-05-10T06:08:33;31.13;;;8.88;;
23115;SDS011;11727;52.134;5.052;2023-05-10T06:11:00;18.98;;;8.02;;
23115;SDS011;11727;52.134;5.052;2023-05-10T06:13:27;21.25;;;7.80;;
23115;SDS011;11727;52.134;5.052;2023-05-10T06:16:00;15.88;;;7.25;;
23115;SDS011;11727;52.134;5.052;2023-05-10T06:18:27;19.75;;;8.25;;
23115;SDS011;11727;52.134;5.052;2023-05-10T06:20:52;18.33;;;7.75;;
23115;SDS011;11727;52.134;5.052;2023-05-10T06:23:18;19.38;;;6.95;;
23115;SDS011;11727;52.134;5.052;2023-05-10T06:25:44;24.65;;;7.35;;
23115;SDS011;11727;52.134;5.052;2023-05-10T06:28:10;19.75;;;7.78;;
23115;SDS011;11727;52.134;5.052;2023-05-10T06:30:36;19.45;;;7.45;;
23115;SDS011;11727;52.134;5.052;2023-05-10T06:33:01;15.93;;;6.60;;
23115;SDS011;11727;52.134;5.052;2023-05-10T06:35:29;17.05;;;7.32;;
23115;SDS011;11727;52.134;5.052;2023-05-10T06:37:58;16.65;;;7.63;;
23115;SDS011;11727;52.134;5.052;2023-05-10T06:40:24;17.08;;;7.80;;
23115;SDS011;11727;52.134;5.052;2023-05-10T06:42:49;19.30;;;7.28;;
23115;SDS011;11727;52.134;5.052;2023-05-10T06:45:15;15.38;;;6.47;;
23115;SDS011;11727;52.134;5.052;2023-05-10T06:47:41;14.52;;;6.90;;
23115;SDS011;11727;52.134;5.052;2023-05-10T06:50:07;17.75;;;7.60;;
23115;SDS011;11727;52.134;5.052;2023-05-10T06:52:34;17.40;;;7.20;;
23115;SDS011;11727;52.134;5.052;2023-05-10T06:55:00;15.80;;;7.13;;
23115;SDS011;11727;52.134;5.052;2023-05-10T06:57:26;16.23;;;6.32;;
23115;SDS011;11727;52.134;5.052;2023-05-10T06:59:51;17.35;;;6.18;;
23115;SDS011;11727;52.134;5.052;2023-05-10T07:02:17;14.90;;;6.32;;
23115;SDS011;11727;52.134;5.052;2023-05-10T07:04:43;19.67;;;7.32;;
23115;SDS011;11727;52.134;5.052;2023-05-10T07:07:08;11.80;;;5.75;;
23115;SDS011;11727;52.134;5.052;2023-05-10T07:09:34;14.27;;;5.72;;
23115;SDS011;11727;52.134;5.052;2023-05-10T07:12:00;15.32;;;6.25;;
23115;SDS011;11727;52.134;5.052;2023-05-10T07:14:26;13.20;;;6.13;;
23115;SDS011;11727;52.134;5.052;2023-05-10T07:16:52;15.63;;;6.10;;
23115;SDS011;11727;52.134;5.052;2023-05-10T07:19:18;16.60;;;6.53;;
23115;SDS011;11727;52.134;5.052;2023-05-10T07:21:44;15.32;;;6.15;;
23115;SDS011;11727;52.134;5.052;2023-05-10T07:24:10;12.70;;;6.47;;
23115;SDS011;11727;52.134;5.052;2023-05-10T07:26:36;13.15;;;5.65;;
23115;SDS011;11727;52.134;5.052;2023-05-10T07:29:02;18.17;;;7.18;;
23115;SDS011;11727;52.134;5.052;2023-05-10T07:31:27;13.27;;;6.40;;
23115;SDS011;11727;52.134;5.052;2023-05-10T07:33:53;16.65;;;6.55;;
23115;SDS011;11727;52.134;5.052;2023-05-10T07:36:19;16.25;;;6.18;;
23115;SDS011;11727;52.134;5.052;2023-05-10T07:38:45;13.68;;;6.20;;
23115;SDS011;11727;52.134;5.052;2023-05-10T07:41:13;14.90;;;5.95;;
23115;SDS011;11727;52.134;5.052;2023-05-10T07:43:39;13.55;;;5.60;;
23115;SDS011;11727;52.134;5.052;2023-05-10T07:46:05;13.43;;;5.57;;
23115;SDS011;11727;52.134;5.052;2023-05-10T07:48:30;11.80;;;5.78;;
23115;SDS011;11727;52.134;5.052;2023-05-10T07:50:56;11.85;;;5.18;;
23115;SDS011;11727;52.134;5.052;2023-05-10T07:53:22;14.13;;;6.07;;
23115;SDS011;11727;52.134;5.052;2023-05-10T07:55:51;14.65;;;5.30;;
23115;SDS011;11727;52.134;5.052;2023-05-10T07:58:19;12.70;;;5.35;;
23115;SDS011;11727;52.134;5.052;2023-05-10T08:00:45;13.82;;;5.65;;
23115;SDS011;11727;52.134;5.052;2023-05-10T08:03:10;15.70;;;5.57;;
23115;SDS011;11727;52.134;5.052;2023-05-10T08:05:36;13.10;;;5.43;;
23115;SDS011;11727;52.134;5.052;2023-05-10T08:08:01;10.95;;;5.03;;
23115;SDS011;11727;52.134;5.052;2023-05-10T08:10:27;13.98;;;5.85;;
23115;SDS011;11727;52.134;5.052;2023-05-10T08:12:53;13.00;;;5.45;;
23115;SDS011;11727;52.134;5.052;2023-05-10T08:15:18;10.38;;;5.32;;
23115;SDS011;11727;52.134;5.052;2023-05-10T08:17:44;13.18;;;4.78;;
23115;SDS011;11727;52.134;5.052;2023-05-10T08:20:10;14.25;;;5.85;;
23115;SDS011;11727;52.134;5.052;2023-05-10T08:22:37;10.35;;;5.00;;
23115;SDS011;11727;52.134;5.052;2023-05-10T08:25:03;14.93;;;6.18;;
23115;SDS011;11727;52.134;5.052;2023-05-10T08:27:29;13.70;;;5.15;;
23115;SDS011;11727;52.134;5.052;2023-05-10T08:29:54;11.82;;;5.07;;
23115;SDS011;11727;52.134;5.052;2023-05-10T08:32:20;10.25;;;4.43;;
23115;SDS011;11727;52.134;5.052;2023-05-10T08:34:46;9.23;;;4.15;;
23115;SDS011;11727;52.134;5.052;2023-05-10T08:37:11;11.40;;;4.18;;
23115;SDS011;11727;52.134;5.052;2023-05-10T08:39:38;8.10;;;4.00;;
23115;SDS011;11727;52.134;5.052;2023-05-10T08:42:04;10.07;;;4.40;;
23115;SDS011;11727;52.134;5.052;2023-05-10T08:44:34;7.97;;;3.90;;
23115;SDS011;11727;52.134;5.052;2023-05-10T08:47:04;7.80;;;3.70;;
23115;SDS011;11727;52.134;5.052;2023-05-10T08:49:32;8.13;;;3.70;;
23115;SDS011;11727;52.134;5.052;2023-05-10T08:51:59;12.60;;;4.47;;
23115;SDS011;11727;52.134;5.052;2023-05-10T08:54:29;11.07;;;4.65;;
23115;SDS011;11727;52.134;5.052;2023-05-10T08:56:56;25.73;;;5.60;;
23115;SDS011;11727;52.134;5.052;2023-05-10T08:59:22;10.90;;;4.53;;
23115;SDS011;11727;52.134;5.052;2023-05-10T09:01:47;5.43;;;2.88;;
23115;SDS011;11727;52.134;5.052;2023-05-10T09:04:15;10.20;;;3.70;;
23115;SDS011;11727;52.134;5.052;2023-05-10T09:06:40;7.90;;;3.47;;
23115;SDS011;11727;52.134;5.052;2023-05-10T09:09:06;6.80;;;3.70;;
23115;SDS011;11727;52.134;5.052;2023-05-10T09:11:32;6.80;;;3.63;;
23115;SDS011;11727;52.134;5.052;2023-05-10T09:13:58;6.05;;;3.25;;
23115;SDS011;11727;52.134;5.052;2023-05-10T09:16:24;7.82;;;3.53;;
23115;SDS011;11727;52.134;5.052;2023-05-10T09:18:53;6.95;;;2.85;;
23115;SDS011;11727;52.134;5.052;2023-05-10T09:21:19;6.78;;;3.33;;
23115;SDS011;11727;52.134;5.052;2023-05-10T09:23:45;5.43;;;2.75;;
23115;SDS011;11727;52.134;5.052;2023-05-10T09:26:11;7.38;;;2.92;;
23115;SDS011;11727;52.134;5.052;2023-05-10T09:31:16;4.63;;;2.13;;
23115;SDS011;11727;52.134;5.052;2023-05-10T09:33:45;8.13;;;2.70;;
23115;SDS011;11727;52.134;5.052;2023-05-10T09:36:12;5.82;;;2.20;;
23115;SDS011;11727;52.134;5.052;2023-05-10T09:38:51;5.90;;;2.85;;
23115;SDS011;11727;52.134;5.052;2023-05-10T09:41:23;3.30;;;2.03;;
23115;SDS011;11727;52.134;5.052;2023-05-10T09:43:50;5.40;;;2.50;;
23115;SDS011;11727;52.134;5.052;2023-05-10T09:46:21;7.68;;;2.47;;
23115;SDS011;11727;52.134;5.052;2023-05-10T09:48:47;5.75;;;2.50;;
23115;SDS011;11727;52.134;5.052;2023-05-10T09:51:20;3.65;;;1.98;;
23115;SDS011;11727;52.134;5.052;2023-05-10T09:53:47;7.00;;;3.13;;
23115;SDS011;11727;52.134;5.052;2023-05-10T09:56:13;9.50;;;3.00;;
23115;SDS011;11727;52.134;5.052;2023-05-10T09:59:03;6.97;;;3.20;;
23115;SDS011;11727;52.134;5.052;2023-05-10T10:01:30;7.72;;;3.10;;
23115;SDS011;11727;52.134;5.052;2023-05-10T10:03:56;12.07;;;3.45;;
23115;SDS011;11727;52.134;5.052;2023-05-10T10:06:23;7.28;;;3.22;;
23115;SDS011;11727;52.134;5.052;2023-05-10T10:08:49;11.00;;;4.13;;
23115;SDS011;11727;52.134;5.052;2023-05-10T10:11:16;7.93;;;3.17;;
23115;SDS011;11727;52.134;5.052;2023-05-10T10:13:41;8.45;;;3.30;;
23115;SDS011;11727;52.134;5.052;2023-05-10T10:16:08;7.72;;;4.13;;
23115;SDS011;11727;52.134;5.052;2023-05-10T10:18:34;11.10;;;4.78;;
23115;SDS011;11727;52.134;5.052;2023-05-10T10:21:04;10.73;;;3.85;;
23115;SDS011;11727;52.134;5.052;2023-05-10T10:23:36;6.70;;;3.42;;
23115;SDS011;11727;52.134;5.052;2023-05-10T10:26:03;8.07;;;3.13;;
23115;SDS011;11727;52.134;5.052;2023-05-10T10:28:40;7.95;;;3.22;;
23115;SDS011;11727;52.134;5.052;2023-05-10T10:34:08;6.38;;;2.72;;
23115;SDS011;11727;52.134;5.052;2023-05-10T10:36:43;4.50;;;2.25;;
23115;SDS011;11727;52.134;5.052;2023-05-10T10:39:10;6.28;;;2.70;;
23115;SDS011;11727;52.134;5.052;2023-05-10T10:41:49;5.90;;;2.90;;
23115;SDS011;11727;52.134;5.052;2023-05-10T10:47:02;8.73;;;3.35;;
23115;SDS011;11727;52.134;5.052;2023-05-10T10:49:48;4.85;;;2.22;;
23115;SDS011;11727;52.134;5.052;2023-05-10T10:52:23;7.65;;;2.92;;
23115;SDS011;11727;52.134;5.052;2023-05-10T10:55:11;4.60;;;1.92;;
23115;SDS011;11727;52.134;5.052;2023-05-10T11:00:25;4.28;;;1.90;;
23115;SDS011;11727;52.134;5.052;2023-05-10T11:03:08;2.85;;;1.70;;
23115;SDS011;11727;52.134;5.052;2023-05-10T11:08:20;4.22;;;1.70;;
23115;SDS011;11727;52.134;5.052;2023-05-10T11:13:43;6.55;;;2.58;;
23115;SDS011;11727;52.134;5.052;2023-05-10T11:16:13;3.78;;;2.15;;
23115;SDS011;11727;52.134;5.052;2023-05-10T11:18:41;5.60;;;2.42;;
23115;SDS011;11727;52.134;5.052;2023-05-10T11:21:16;4.47;;;2.30;;
23115;SDS011;11727;52.134;5.052;2023-05-10T11:23:55;6.18;;;2.70;;
23115;SDS011;11727;52.134;5.052;2023-05-10T11:26:25;6.20;;;2.17;;
23115;SDS011;11727;52.134;5.052;2023-05-10T11:28:58;6.47;;;2.73;;
23115;SDS011;11727;52.134;5.052;2023-05-10T11:31:25;5.63;;;1.85;;
23115;SDS011;11727;52.134;5.052;2023-05-10T11:33:55;4.55;;;2.00;;
23115;SDS011;11727;52.134;5.052;2023-05-10T11:36:23;8.63;;;2.75;;
23115;SDS011;11727;52.134;5.052;2023-05-10T11:38:51;5.05;;;2.47;;
23115;SDS011;11727;52.134;5.052;2023-05-10T11:41:18;3.85;;;2.03;;
23115;SDS011;11727;52.134;5.052;2023-05-10T11:43:46;6.00;;;2.20;;
23115;SDS011;11727;52.134;5.052;2023-05-10T11:46:14;3.25;;;2.03;;
23115;SDS011;11727;52.134;5.052;2023-05-10T11:48:41;5.18;;;2.22;;
23115;SDS011;11727;52.134;5.052;2023-05-10T11:51:07;4.10;;;2.08;;
23115;SDS011;11727;52.134;5.052;2023-05-10T11:53:34;6.70;;;2.42;;
23115;SDS011;11727;52.134;5.052;2023-05-10T11:56:03;4.13;;;1.80;;
23115;SDS011;11727;52.134;5.052;2023-05-10T11:58:33;4.50;;;1.77;;
23115;SDS011;11727;52.134;5.052;2023-05-10T12:01:00;5.22;;;2.45;;
23115;SDS011;11727;52.134;5.052;2023-05-10T12:03:28;3.38;;;2.22;;
23115;SDS011;11727;52.134;5.052;2023-05-10T12:05:55;4.95;;;2.65;;
23115;SDS011;11727;52.134;5.052;2023-05-10T12:08:22;5.45;;;2.70;;
23115;SDS011;11727;52.134;5.052;2023-05-10T12:10:52;9.07;;;4.53;;
23115;SDS011;11727;52.134;5.052;2023-05-10T12:13:19;11.30;;;5.13;;
23115;SDS011;11727;52.134;5.052;2023-05-10T12:15:45;10.70;;;5.03;;
23115;SDS011;11727;52.134;5.052;2023-05-10T12:18:12;11.07;;;5.60;;
23115;SDS011;11727;52.134;5.052;2023-05-10T12:20:39;13.20;;;6.68;;
23115;SDS011;11727;52.134;5.052;2023-05-10T12:23:05;12.05;;;6.15;;
23115;SDS011;11727;52.134;5.052;2023-05-10T12:25:33;12.25;;;6.38;;
23115;SDS011;11727;52.134;5.052;2023-05-10T12:28:02;17.15;;;7.40;;
23115;SDS011;11727;52.134;5.052;2023-05-10T12:30:30;19.88;;;7.90;;
23115;SDS011;11727;52.134;5.052;2023-05-10T12:33:15;20.52;;;8.25;;
23115;SDS011;11727;52.134;5.052;2023-05-10T12:35:44;21.85;;;8.50;;
23115;SDS011;11727;52.134;5.052;2023-05-10T12:40:59;18.63;;;8.43;;
23115;SDS011;11727;52.134;5.052;2023-05-10T12:43:38;14.15;;;6.63;;
23115;SDS011;11727;52.134;5.052;2023-05-10T12:46:13;19.83;;;7.85;;
23115;SDS011;11727;52.134;5.052;2023-05-10T12:48:43;24.90;;;7.95;;
23115;SDS011;11727;52.134;5.052;2023-05-10T12:51:17;20.45;;;7.00;;
23115;SDS011;11727;52.134;5.052;2023-05-10T12:53:50;20.90;;;7.65;;
23115;SDS011;11727;52.134;5.052;2023-05-10T12:56:20;19.50;;;7.00;;
23115;SDS011;11727;52.134;5.052;2023-05-10T12:58:46;16.48;;;7.18;;
23115;SDS011;11727;52.134;5.052;2023-05-10T13:01:13;20.42;;;7.45;;
23115;SDS011;11727;52.134;5.052;2023-05-10T13:03:39;18.50;;;7.93;;
23115;SDS011;11727;52.134;5.052;2023-05-10T13:06:04;15.85;;;6.55;;
23115;SDS011;11727;52.134;5.052;2023-05-10T13:08:31;16.63;;;6.20;;
23115;SDS011;11727;52.134;5.052;2023-05-10T13:10:58;14.02;;;6.57;;
23115;SDS011;11727;52.134;5.052;2023-05-10T13:13:25;15.10;;;6.33;;
23115;SDS011;11727;52.134;5.052;2023-05-10T13:15:51;18.65;;;7.95;;
23115;SDS011;11727;52.134;5.052;2023-05-10T13:18:17;22.85;;;7.72;;
23115;SDS011;11727;52.134;5.052;2023-05-10T13:20:42;11.27;;;5.30;;
23115;SDS011;11727;52.134;5.052;2023-05-10T13:23:09;20.40;;;6.07;;
23115;SDS011;11727;52.134;5.052;2023-05-10T13:25:35;20.65;;;6.88;;
23115;SDS011;11727;52.134;5.052;2023-05-10T13:28:01;20.00;;;6.82;;
23115;SDS011;11727;52.134;5.052;2023-05-10T13:30:27;14.60;;;5.97;;
23115;SDS011;11727;52.134;5.052;2023-05-10T13:32:53;15.23;;;6.28;;
23115;SDS011;11727;52.134;5.052;2023-05-10T13:35:19;12.18;;;5.38;;
23115;SDS011;11727;52.134;5.052;2023-05-10T13:37:45;13.93;;;5.57;;
23115;SDS011;11727;52.134;5.052;2023-05-10T13:40:11;11.30;;;5.07;;
23115;SDS011;11727;52.134;5.052;2023-05-10T13:42:37;11.70;;;4.38;;
23115;SDS011;11727;52.134;5.052;2023-05-10T13:45:05;10.13;;;5.25;;
23115;SDS011;11727;52.134;5.052;2023-05-10T13:47:31;11.52;;;4.63;;
23115;SDS011;11727;52.134;5.052;2023-05-10T13:49:57;15.10;;;5.03;;
23115;SDS011;11727;52.134;5.052;2023-05-10T13:52:23;10.05;;;4.10;;
23115;SDS011;11727;52.134;5.052;2023-05-10T13:54:55;13.27;;;4.95;;
23115;SDS011;11727;52.134;5.052;2023-05-10T13:57:22;10.95;;;4.97;;
23115;SDS011;11727;52.134;5.052;2023-05-10T13:59:48;11.98;;;5.10;;
23115;SDS011;11727;52.134;5.052;2023-05-10T14:02:17;14.02;;;4.68;;
23115;SDS011;11727;52.134;5.052;2023-05-10T14:04:43;9.80;;;5.22;;
23115;SDS011;11727;52.134;5.052;2023-05-10T14:07:08;10.95;;;4.20;;
23115;SDS011;11727;52.134;5.052;2023-05-10T14:09:34;11.63;;;4.65;;
23115;SDS011;11727;52.134;5.052;2023-05-10T14:11:59;8.85;;;4.32;;
23115;SDS011;11727;52.134;5.052;2023-05-10T14:14:25;11.15;;;4.68;;
23115;SDS011;11727;52.134;5.052;2023-05-10T14:16:51;11.50;;;4.78;;
23115;SDS011;11727;52.134;5.052;2023-05-10T14:19:21;11.95;;;5.55;;
23115;SDS011;11727;52.134;5.052;2023-05-10T14:21:46;13.27;;;5.07;;
23115;SDS011;11727;52.134;5.052;2023-05-10T14:24:15;11.25;;;4.90;;
23115;SDS011;11727;52.134;5.052;2023-05-10T14:26:42;8.65;;;4.25;;
23115;SDS011;11727;52.134;5.052;2023-05-10T14:29:08;15.20;;;6.28;;
23115;SDS011;11727;52.134;5.052;2023-05-10T14:31:35;12.27;;;5.18;;
23115;SDS011;11727;52.134;5.052;2023-05-10T14:34:01;9.00;;;4.28;;
23115;SDS011;11727;52.134;5.052;2023-05-10T14:36:26;9.55;;;4.32;;
23115;SDS011;11727;52.134;5.052;2023-05-10T14:38:52;13.95;;;4.68;;
23115;SDS011;11727;52.134;5.052;2023-05-10T14:41:21;9.80;;;3.90;;
23115;SDS011;11727;52.134;5.052;2023-05-10T14:43:46;8.13;;;3.63;;
23115;SDS011;11727;52.134;5.052;2023-05-10T14:46:12;7.30;;;3.00;;
23115;SDS011;11727;52.134;5.052;2023-05-10T14:48:37;8.23;;;2.88;;
23115;SDS011;11727;52.134;5.052;2023-05-10T14:51:03;11.05;;;3.13;;
23115;SDS011;11727;52.134;5.052;2023-05-10T14:53:29;6.63;;;2.95;;
23115;SDS011;11727;52.134;5.052;2023-05-10T14:55:54;9.57;;;3.42;;
23115;SDS011;11727;52.134;5.052;2023-05-10T14:58:20;8.02;;;3.67;;
23115;SDS011;11727;52.134;5.052;2023-05-10T15:00:46;9.10;;;4.05;;
23115;SDS011;11727;52.134;5.052;2023-05-10T15:03:11;10.38;;;3.58;;
23115;SDS011;11727;52.134;5.052;2023-05-10T15:05:37;7.45;;;2.85;;
23115;SDS011;11727;52.134;5.052;2023-05-10T15:08:04;9.52;;;4.18;;